sensor_id;sensor_type;location;lat;lon;timestamp;P1;durP1;ratioP1;P2;durP2;ratioP2
75054;SDS011;63636;44.746;10.488;2023-06-22T00:00:08;9.00;;;5.35;;
75054;SDS011;63636;44.746;10.488;2023-06-22T00:02:37;7.57;;;5.03;;
75054;SDS011;63636;44.746;10.488;2023-06-22T00:05:03;6.55;;;4.80;;
75054;SDS011;63636;44.746;10.488;2023-06-22T00:07:28;9.73;;;5.32;;
75054;SDS011;63636;44.746;10.488;2023-06-22T00:09:54;7.68;;;5.28;;
75054;SDS011;63636;44.746;10.488;2023-06-22T00:12:19;7.78;;;5.03;;
75054;SDS011;63636;44.746;10.488;2023-06-22T00:14:45;7.53;;;5.10;;
75054;SDS011;63636;44.746;10.488;2023-06-22T00:17:10;7.28;;;5.15;;
75054;SDS011;63636;44.746;10.488;2023-06-22T00:19:36;8.25;;;5.20;;
75054;SDS011;63636;44.746;10.488;2023-06-22T00:22:01;10.20;;;5.07;;
75054;SDS011;63636;44.746;10.488;2023-06-22T00:24:28;9.30;;;4.97;;
75054;SDS011;63636;44.746;10.488;2023-06-22T00:26:54;7.75;;;5.38;;
75054;SDS011;63636;44.746;10.488;2023-06-22T00:29:19;10.07;;;5.18;;
75054;SDS011;63636;44.746;10.488;2023-06-22T00:31:45;9.57;;;5.53;;
75054;SDS011;63636;44.746;10.488;2023-06-22T00:34:10;7.30;;;5.13;;
75054;SDS011;63636;44.746;10.488;2023-06-22T00:36:36;9.68;;;5.18;;
75054;SDS011;63636;44.746;10.488;2023-06-22T00:39:02;7.68;;;5.00;;
75054;SDS011;63636;44.746;10.488;2023-06-22T00:41:29;10.40;;;5.15;;
75054;SDS011;63636;44.746;10.488;2023-06-22T00:43:55;8.00;;;5.07;;
75054;SDS011;63636;44.746;10.488;2023-06-22T00:46:21;7.80;;;5.35;;
75054;SDS011;63636;44.746;10.488;2023-06-22T00:48:48;8.27;;;5.60;;
75054;SDS011;63636;44.746;10.488;2023-06-22T00:51:13;9.85;;;5.18;;
75054;SDS011;63636;44.746;10.488;2023-06-22T00:53:39;7.78;;;4.93;;
75054;SDS011;63636;44.746;10.488;2023-06-22T00:56:06;7.78;;;5.30;;
75054;SDS011;63636;44.746;10.488;2023-06-22T00:58:36;7.60;;;5.57;;
75054;SDS011;63636;44.746;10.488;2023-06-22T01:01:01;8.15;;;5.20;;
75054;SDS011;63636;44.746;10.488;2023-06-22T01:03:27;10.10;;;5.50;;
75054;SDS011;63636;44.746;10.488;2023-06-22T01:05:54;8.80;;;5.10;;
75054;SDS011;63636;44.746;10.488;2023-06-22T01:08:46;8.88;;;5.35;;
75054;SDS011;63636;44.746;10.488;2023-06-22T01:11:23;7.35;;;5.15;;
75054;SDS011;63636;44.746;10.488;2023-06-22T01:16:31;8.38;;;5.68;;
75054;SDS011;63636;44.746;10.488;2023-06-22T01:19:00;8.77;;;5.30;;
75054;SDS011;63636;44.746;10.488;2023-06-22T01:21:28;11.60;;;6.10;;
75054;SDS011;63636;44.746;10.488;2023-06-22T01:24:11;9.82;;;5.57;;
75054;SDS011;63636;44.746;10.488;2023-06-22T01:26:47;10.00;;;6.00;;
75054;SDS011;63636;44.746;10.488;2023-06-22T01:29:19;8.98;;;5.47;;
75054;SDS011;63636;44.746;10.488;2023-06-22T01:31:47;7.63;;;5.43;;
75054;SDS011;63636;44.746;10.488;2023-06-22T01:34:14;11.13;;;5.70;;
75054;SDS011;63636;44.746;10.488;2023-06-22T01:36:40;10.32;;;5.78;;
75054;SDS011;63636;44.746;10.488;2023-06-22T01:39:07;8.35;;;5.38;;
75054;SDS011;63636;44.746;10.488;2023-06-22T01:41:35;7.85;;;5.30;;
75054;SDS011;63636;44.746;10.488;2023-06-22T01:44:01;8.60;;;5.13;;
75054;SDS011;63636;44.746;10.488;2023-06-22T01:46:28;7.63;;;4.55;;
75054;SDS011;63636;44.746;10.488;2023-06-22T01:48:54;8.77;;;5.03;;
75054;SDS011;63636;44.746;10.488;2023-06-22T01:51:21;9.07;;;5.10;;
75054;SDS011;63636;44.746;10.488;2023-06-22T01:53:47;8.77;;;5.50;;
75054;SDS011;63636;44.746;10.488;2023-06-22T01:56:14;9.70;;;5.80;;
75054;SDS011;63636;44.746;10.488;2023-06-22T01:58:44;10.90;;;5.82;;
75054;SDS011;63636;44.746;10.488;2023-06-22T02:01:12;10.00;;;5.78;;
75054;SDS011;63636;44.746;10.488;2023-06-22T02:03:48;9.98;;;5.97;;
75054;SDS011;63636;44.746;10.488;2023-06-22T02:06:34;9.27;;;5.40;;
75054;SDS011;63636;44.746;10.488;2023-06-22T02:09:02;10.18;;;5.68;;
75054;SDS011;63636;44.746;10.488;2023-06-22T02:11:30;10.57;;;6.00;;
75054;SDS011;63636;44.746;10.488;2023-06-22T02:13:57;9.23;;;5.95;;
75054;SDS011;63636;44.746;10.488;2023-06-22T02:16:23;9.93;;;6.30;;
75054;SDS011;63636;44.746;10.488;2023-06-22T02:18:49;9.07;;;6.53;;
75054;SDS011;63636;44.746;10.488;2023-06-22T02:21:16;10.48;;;6.80;;
75054;SDS011;63636;44.746;10.488;2023-06-22T02:23:42;13.00;;;6.55;;
75054;SDS011;63636;44.746;10.488;2023-06-22T02:26:07;11.35;;;7.50;;
75054;SDS011;63636;44.746;10.488;2023-06-22T02:28:33;11.40;;;7.25;;
75054;SDS011;63636;44.746;10.488;2023-06-22T02:30:59;10.07;;;7.00;;
75054;SDS011;63636;44.746;10.488;2023-06-22T02:33:24;12.00;;;7.95;;
75054;SDS011;63636;44.746;10.488;2023-06-22T02:35:50;10.93;;;7.65;;
75054;SDS011;63636;44.746;10.488;2023-06-22T02:38:16;12.90;;;8.43;;
75054;SDS011;63636;44.746;10.488;2023-06-22T02:40:43;12.10;;;7.95;;
75054;SDS011;63636;44.746;10.488;2023-06-22T02:43:09;12.07;;;7.97;;
75054;SDS011;63636;44.746;10.488;2023-06-22T02:45:35;12.82;;;8.52;;
75054;SDS011;63636;44.746;10.488;2023-06-22T02:48:01;12.07;;;8.07;;
75054;SDS011;63636;44.746;10.488;2023-06-22T02:50:27;10.77;;;8.05;;
75054;SDS011;63636;44.746;10.488;2023-06-22T02:52:53;10.20;;;8.00;;
75054;SDS011;63636;44.746;10.488;2023-06-22T02:55:19;10.20;;;7.55;;
75054;SDS011;63636;44.746;10.488;2023-06-22T02:57:52;10.40;;;7.88;;
75054;SDS011;63636;44.746;10.488;2023-06-22T03:00:19;9.95;;;7.30;;
75054;SDS011;63636;44.746;10.488;2023-06-22T03:02:47;12.05;;;7.95;;
75054;SDS011;63636;44.746;10.488;2023-06-22T03:05:13;11.70;;;8.15;;
75054;SDS011;63636;44.746;10.488;2023-06-22T03:07:40;9.38;;;7.50;;
75054;SDS011;63636;44.746;10.488;2023-06-22T03:10:06;9.48;;;7.40;;
75054;SDS011;63636;44.746;10.488;2023-06-22T03:12:32;10.50;;;7.30;;
75054;SDS011;63636;44.746;10.488;2023-06-22T03:14:58;11.07;;;7.63;;
75054;SDS011;63636;44.746;10.488;2023-06-22T03:17:24;10.18;;;6.65;;
75054;SDS011;63636;44.746;10.488;2023-06-22T03:19:49;14.05;;;6.90;;
75054;SDS011;63636;44.746;10.488;2023-06-22T03:22:15;8.82;;;7.03;;
75054;SDS011;63636;44.746;10.488;2023-06-22T03:24:41;9.93;;;6.97;;
75054;SDS011;63636;44.746;10.488;2023-06-22T03:27:06;11.27;;;7.45;;
75054;SDS011;63636;44.746;10.488;2023-06-22T03:29:33;9.73;;;7.05;;
75054;SDS011;63636;44.746;10.488;2023-06-22T03:31:59;8.80;;;6.90;;
75054;SDS011;63636;44.746;10.488;2023-06-22T03:34:25;9.85;;;7.20;;
75054;SDS011;63636;44.746;10.488;2023-06-22T03:36:52;9.70;;;6.63;;
75054;SDS011;63636;44.746;10.488;2023-06-22T03:39:17;11.20;;;7.32;;
75054;SDS011;63636;44.746;10.488;2023-06-22T03:41:43;11.18;;;7.80;;
75054;SDS011;63636;44.746;10.488;2023-06-22T03:44:09;8.77;;;6.85;;
75054;SDS011;63636;44.746;10.488;2023-06-22T03:46:37;10.20;;;7.40;;
75054;SDS011;63636;44.746;10.488;2023-06-22T03:49:03;9.88;;;7.00;;
75054;SDS011;63636;44.746;10.488;2023-06-22T03:51:29;9.90;;;7.10;;
75054;SDS011;63636;44.746;10.488;2023-06-22T03:53:54;10.82;;;7.38;;
75054;SDS011;63636;44.746;10.488;2023-06-22T03:56:20;10.20;;;7.32;;
75054;SDS011;63636;44.746;10.488;2023-06-22T03:58:46;12.00;;;7.20;;
75054;SDS011;63636;44.746;10.488;2023-06-22T04:01:12;9.30;;;6.70;;
75054;SDS011;63636;44.746;10.488;2023-06-22T04:03:38;11.07;;;6.68;;
75054;SDS011;63636;44.746;10.488;2023-06-22T04:06:03;10.80;;;6.82;;
75054;SDS011;63636;44.746;10.488;2023-06-22T04:08:29;10.52;;;6.70;;
75054;SDS011;63636;44.746;10.488;2023-06-22T04:10:55;8.68;;;6.43;;
75054;SDS011;63636;44.746;10.488;2023-06-22T04:13:20;9.48;;;6.50;;
75054;SDS011;63636;44.746;10.488;2023-06-22T04:15:46;8.40;;;6.25;;
75054;SDS011;63636;44.746;10.488;2023-06-22T04:18:11;10.57;;;6.05;;
75054;SDS011;63636;44.746;10.488;2023-06-22T04:20:38;8.90;;;6.05;;
75054;SDS011;63636;44.746;10.488;2023-06-22T04:23:04;7.60;;;5.47;;
75054;SDS011;63636;44.746;10.488;2023-06-22T04:25:29;10.88;;;6.35;;
75054;SDS011;63636;44.746;10.488;2023-06-22T04:27:55;9.50;;;6.20;;
75054;SDS011;63636;44.746;10.488;2023-06-22T04:30:21;8.80;;;6.10;;
75054;SDS011;63636;44.746;10.488;2023-06-22T04:32:47;9.20;;;6.43;;
75054;SDS011;63636;44.746;10.488;2023-06-22T04:35:21;9.10;;;6.38;;
75054;SDS011;63636;44.746;10.488;2023-06-22T04:37:47;8.45;;;5.97;;
75054;SDS011;63636;44.746;10.488;2023-06-22T04:40:15;10.52;;;6.13;;
75054;SDS011;63636;44.746;10.488;2023-06-22T04:42:40;12.00;;;6.03;;
75054;SDS011;63636;44.746;10.488;2023-06-22T04:45:08;9.20;;;6.90;;
75054;SDS011;63636;44.746;10.488;2023-06-22T04:47:34;10.93;;;6.32;;
75054;SDS011;63636;44.746;10.488;2023-06-22T04:50:04;10.10;;;6.45;;
75054;SDS011;63636;44.746;10.488;2023-06-22T04:52:31;12.30;;;6.43;;
75054;SDS011;63636;44.746;10.488;2023-06-22T04:54:56;9.52;;;6.10;;
75054;SDS011;63636;44.746;10.488;2023-06-22T04:57:25;9.68;;;6.50;;
75054;SDS011;63636;44.746;10.488;2023-06-22T04:59:57;12.05;;;6.43;;
75054;SDS011;63636;44.746;10.488;2023-06-22T05:02:22;9.77;;;6.72;;
75054;SDS011;63636;44.746;10.488;2023-06-22T05:04:53;9.98;;;6.38;;
75054;SDS011;63636;44.746;10.488;2023-06-22T05:07:22;10.35;;;5.93;;
75054;SDS011;63636;44.746;10.488;2023-06-22T05:09:50;10.98;;;6.35;;
75054;SDS011;63636;44.746;10.488;2023-06-22T05:12:16;11.82;;;6.82;;
75054;SDS011;63636;44.746;10.488;2023-06-22T05:14:41;13.55;;;6.72;;
75054;SDS011;63636;44.746;10.488;2023-06-22T05:17:07;12.27;;;6.38;;
75054;SDS011;63636;44.746;10.488;2023-06-22T05:19:38;9.95;;;6.22;;
75054;SDS011;63636;44.746;10.488;2023-06-22T05:22:04;9.82;;;5.88;;
75054;SDS011;63636;44.746;10.488;2023-06-22T05:24:31;8.50;;;5.85;;
75054;SDS011;63636;44.746;10.488;2023-06-22T05:26:57;9.57;;;6.13;;
75054;SDS011;63636;44.746;10.488;2023-06-22T05:29:22;9.63;;;6.10;;
75054;SDS011;63636;44.746;10.488;2023-06-22T05:31:48;10.77;;;6.07;;
75054;SDS011;63636;44.746;10.488;2023-06-22T05:34:14;10.60;;;6.28;;
75054;SDS011;63636;44.746;10.488;2023-06-22T05:36:39;9.40;;;5.78;;
75054;SDS011;63636;44.746;10.488;2023-06-22T05:39:14;9.43;;;5.90;;
75054;SDS011;63636;44.746;10.488;2023-06-22T05:41:40;9.75;;;5.43;;
75054;SDS011;63636;44.746;10.488;2023-06-22T05:44:06;9.45;;;5.47;;
75054;SDS011;63636;44.746;10.488;2023-06-22T05:46:31;11.98;;;5.60;;
75054;SDS011;63636;44.746;10.488;2023-06-22T05:48:57;12.98;;;6.35;;
75054;SDS011;63636;44.746;10.488;2023-06-22T05:51:23;11.27;;;5.82;;
75054;SDS011;63636;44.746;10.488;2023-06-22T05:53:48;9.18;;;5.93;;
75054;SDS011;63636;44.746;10.488;2023-06-22T05:56:15;11.43;;;6.10;;
75054;SDS011;63636;44.746;10.488;2023-06-22T05:58:41;13.95;;;6.53;;
75054;SDS011;63636;44.746;10.488;2023-06-22T06:01:06;9.93;;;5.55;;
75054;SDS011;63636;44.746;10.488;2023-06-22T06:03:32;11.80;;;5.65;;
75054;SDS011;63636;44.746;10.488;2023-06-22T06:05:57;13.35;;;5.85;;
75054;SDS011;63636;44.746;10.488;2023-06-22T06:08:23;13.60;;;5.63;;
75054;SDS011;63636;44.746;10.488;2023-06-22T06:10:49;12.48;;;6.20;;
75054;SDS011;63636;44.746;10.488;2023-06-22T06:13:14;14.45;;;5.70;;
75054;SDS011;63636;44.746;10.488;2023-06-22T06:15:40;15.40;;;5.65;;
75054;SDS011;63636;44.746;10.488;2023-06-22T06:18:05;15.02;;;5.90;;
75054;SDS011;63636;44.746;10.488;2023-06-22T06:20:32;11.30;;;5.25;;
75054;SDS011;63636;44.746;10.488;2023-06-22T06:22:58;10.27;;;5.57;;
75054;SDS011;63636;44.746;10.488;2023-06-22T06:25:23;11.20;;;5.60;;
75054;SDS011;63636;44.746;10.488;2023-06-22T06:27:50;16.38;;;6.00;;
75054;SDS011;63636;44.746;10.488;2023-06-22T06:30:16;12.65;;;5.30;;
75054;SDS011;63636;44.746;10.488;2023-06-22T06:32:43;12.25;;;4.97;;
75054;SDS011;63636;44.746;10.488;2023-06-22T06:35:11;11.90;;;5.10;;
75054;SDS011;63636;44.746;10.488;2023-06-22T06:37:37;15.05;;;5.22;;
75054;SDS011;63636;44.746;10.488;2023-06-22T06:40:03;7.85;;;4.60;;
75054;SDS011;63636;44.746;10.488;2023-06-22T06:42:30;7.25;;;4.60;;
75054;SDS011;63636;44.746;10.488;2023-06-22T06:44:56;9.93;;;5.07;;
75054;SDS011;63636;44.746;10.488;2023-06-22T06:47:22;10.27;;;4.70;;
75054;SDS011;63636;44.746;10.488;2023-06-22T06:49:47;9.88;;;4.72;;
75054;SDS011;63636;44.746;10.488;2023-06-22T06:52:13;9.63;;;4.60;;
75054;SDS011;63636;44.746;10.488;2023-06-22T06:54:38;9.10;;;4.38;;
75054;SDS011;63636;44.746;10.488;2023-06-22T06:57:04;8.27;;;4.50;;
75054;SDS011;63636;44.746;10.488;2023-06-22T06:59:30;7.82;;;4.20;;
75054;SDS011;63636;44.746;10.488;2023-06-22T07:01:55;9.00;;;4.10;;
75054;SDS011;63636;44.746;10.488;2023-06-22T07:04:21;6.07;;;4.03;;
75054;SDS011;63636;44.746;10.488;2023-06-22T07:06:46;5.95;;;3.67;;
75054;SDS011;63636;44.746;10.488;2023-06-22T07:09:12;8.98;;;4.07;;
75054;SDS011;63636;44.746;10.488;2023-06-22T07:11:37;8.63;;;3.90;;
75054;SDS011;63636;44.746;10.488;2023-06-22T07:14:03;7.40;;;4.00;;
75054;SDS011;63636;44.746;10.488;2023-06-22T07:16:29;7.30;;;3.97;;
75054;SDS011;63636;44.746;10.488;2023-06-22T07:18:55;7.38;;;3.75;;
75054;SDS011;63636;44.746;10.488;2023-06-22T07:21:21;8.75;;;3.88;;
75054;SDS011;63636;44.746;10.488;2023-06-22T07:23:46;8.10;;;3.80;;
75054;SDS011;63636;44.746;10.488;2023-06-22T07:26:12;7.95;;;3.67;;
75054;SDS011;63636;44.746;10.488;2023-06-22T07:28:38;9.88;;;4.00;;
75054;SDS011;63636;44.746;10.488;2023-06-22T07:31:05;7.63;;;3.80;;
75054;SDS011;63636;44.746;10.488;2023-06-22T07:33:31;7.45;;;3.70;;
75054;SDS011;63636;44.746;10.488;2023-06-22T07:35:57;6.35;;;3.72;;
75054;SDS011;63636;44.746;10.488;2023-06-22T07:38:22;6.40;;;3.78;;
75054;SDS011;63636;44.746;10.488;2023-06-22T07:40:48;5.70;;;3.60;;
75054;SDS011;63636;44.746;10.488;2023-06-22T07:43:13;7.00;;;3.90;;
75054;SDS011;63636;44.746;10.488;2023-06-22T07:45:39;9.13;;;3.65;;
75054;SDS011;63636;44.746;10.488;2023-06-22T07:48:06;6.60;;;3.75;;
75054;SDS011;63636;44.746;10.488;2023-06-22T07:50:32;9.40;;;3.92;;
75054;SDS011;63636;44.746;10.488;2023-06-22T07:52:57;9.75;;;3.72;;
75054;SDS011;63636;44.746;10.488;2023-06-22T07:55:23;6.95;;;4.00;;
75054;SDS011;63636;44.746;10.488;2023-06-22T07:57:48;8.20;;;4.10;;
75054;SDS011;63636;44.746;10.488;2023-06-22T08:00:14;8.48;;;4.00;;
75054;SDS011;63636;44.746;10.488;2023-06-22T08:02:42;6.65;;;3.50;;
75054;SDS011;63636;44.746;10.488;2023-06-22T08:05:08;7.93;;;3.70;;
75054;SDS011;63636;44.746;10.488;2023-06-22T08:07:37;7.10;;;4.20;;
75054;SDS011;63636;44.746;10.488;2023-06-22T08:10:04;10.95;;;4.22;;
75054;SDS011;63636;44.746;10.488;2023-06-22T08:12:30;7.60;;;4.03;;
75054;SDS011;63636;44.746;10.488;2023-06-22T08:14:55;7.63;;;3.80;;
75054;SDS011;63636;44.746;10.488;2023-06-22T08:17:22;10.35;;;4.15;;
75054;SDS011;63636;44.746;10.488;2023-06-22T08:19:48;9.23;;;4.10;;
75054;SDS011;63636;44.746;10.488;2023-06-22T08:22:13;5.85;;;3.80;;
75054;SDS011;63636;44.746;10.488;2023-06-22T08:24:39;9.48;;;4.10;;
75054;SDS011;63636;44.746;10.488;2023-06-22T08:27:06;6.63;;;4.00;;
75054;SDS011;63636;44.746;10.488;2023-06-22T08:29:34;6.75;;;4.18;;
75054;SDS011;63636;44.746;10.488;2023-06-22T08:31:59;8.43;;;4.22;;
75054;SDS011;63636;44.746;10.488;2023-06-22T08:34:25;9.32;;;4.70;;
75054;SDS011;63636;44.746;10.488;2023-06-22T08:36:52;6.93;;;4.03;;
75054;SDS011;63636;44.746;10.488;2023-06-22T08:39:18;7.57;;;4.03;;
75054;SDS011;63636;44.746;10.488;2023-06-22T08:41:44;5.63;;;3.60;;
75054;SDS011;63636;44.746;10.488;2023-06-22T08:44:10;7.93;;;3.45;;
75054;SDS011;63636;44.746;10.488;2023-06-22T08:46:35;7.43;;;3.70;;
75054;SDS011;63636;44.746;10.488;2023-06-22T08:49:01;5.95;;;4.00;;
75054;SDS011;63636;44.746;10.488;2023-06-22T08:51:27;7.72;;;4.28;;
75054;SDS011;63636;44.746;10.488;2023-06-22T08:53:53;6.50;;;3.72;;
75054;SDS011;63636;44.746;10.488;2023-06-22T08:56:19;9.05;;;3.50;;
75054;SDS011;63636;44.746;10.488;2023-06-22T08:58:44;7.68;;;3.90;;
75054;SDS011;63636;44.746;10.488;2023-06-22T09:01:10;9.50;;;3.92;;
75054;SDS011;63636;44.746;10.488;2023-06-22T09:03:35;7.63;;;3.88;;
75054;SDS011;63636;44.746;10.488;2023-06-22T09:06:03;7.28;;;3.70;;
75054;SDS011;63636;44.746;10.488;2023-06-22T09:08:28;5.93;;;3.58;;
75054;SDS011;63636;44.746;10.488;2023-06-22T09:10:54;6.85;;;4.18;;
75054;SDS011;63636;44.746;10.488;2023-06-22T09:13:19;7.25;;;3.70;;
75054;SDS011;63636;44.746;10.488;2023-06-22T09:15:45;6.28;;;3.92;;
75054;SDS011;63636;44.746;10.488;2023-06-22T09:18:10;7.07;;;3.60;;
75054;SDS011;63636;44.746;10.488;2023-06-22T09:20:36;6.88;;;3.60;;
75054;SDS011;63636;44.746;10.488;2023-06-22T09:23:02;7.47;;;4.00;;
75054;SDS011;63636;44.746;10.488;2023-06-22T09:25:27;7.43;;;4.00;;
75054;SDS011;63636;44.746;10.488;2023-06-22T09:27:53;6.47;;;3.83;;
75054;SDS011;63636;44.746;10.488;2023-06-22T09:30:19;6.57;;;3.80;;
75054;SDS011;63636;44.746;10.488;2023-06-22T09:32:44;6.78;;;3.90;;
75054;SDS011;63636;44.746;10.488;2023-06-22T09:35:10;6.63;;;3.95;;
75054;SDS011;63636;44.746;10.488;2023-06-22T09:37:38;8.38;;;3.85;;
75054;SDS011;63636;44.746;10.488;2023-06-22T09:40:03;7.95;;;3.78;;
75054;SDS011;63636;44.746;10.488;2023-06-22T09:42:35;6.95;;;4.10;;
75054;SDS011;63636;44.746;10.488;2023-06-22T09:45:00;7.18;;;4.00;;
75054;SDS011;63636;44.746;10.488;2023-06-22T09:47:27;7.07;;;3.72;;
75054;SDS011;63636;44.746;10.488;2023-06-22T09:49:52;8.35;;;3.80;;
75054;SDS011;63636;44.746;10.488;2023-06-22T09:52:21;7.55;;;3.80;;
75054;SDS011;63636;44.746;10.488;2023-06-22T09:54:46;8.25;;;3.55;;
75054;SDS011;63636;44.746;10.488;2023-06-22T09:57:12;8.77;;;3.80;;
75054;SDS011;63636;44.746;10.488;2023-06-22T09:59:38;7.38;;;4.00;;
75054;SDS011;63636;44.746;10.488;2023-06-22T10:02:08;6.47;;;3.88;;
75054;SDS011;63636;44.746;10.488;2023-06-22T10:04:34;8.45;;;3.97;;
75054;SDS011;63636;44.746;10.488;2023-06-22T10:06:59;9.27;;;4.20;;
75054;SDS011;63636;44.746;10.488;2023-06-22T10:09:25;7.75;;;4.00;;
75054;SDS011;63636;44.746;10.488;2023-06-22T10:11:50;8.93;;;3.97;;
75054;SDS011;63636;44.746;10.488;2023-06-22T10:14:16;8.15;;;3.95;;
75054;SDS011;63636;44.746;10.488;2023-06-22T10:16:42;7.03;;;4.03;;
75054;SDS011;63636;44.746;10.488;2023-06-22T10:19:07;8.40;;;3.83;;
75054;SDS011;63636;44.746;10.488;2023-06-22T10:21:33;7.90;;;3.90;;
75054;SDS011;63636;44.746;10.488;2023-06-22T10:23:59;7.45;;;3.50;;
75054;SDS011;63636;44.746;10.488;2023-06-22T10:26:34;6.60;;;3.78;;
75054;SDS011;63636;44.746;10.488;2023-06-22T10:29:00;7.85;;;3.90;;
75054;SDS011;63636;44.746;10.488;2023-06-22T10:31:25;6.35;;;3.63;;
75054;SDS011;63636;44.746;10.488;2023-06-22T10:33:51;7.45;;;4.10;;
75054;SDS011;63636;44.746;10.488;2023-06-22T10:36:16;7.28;;;3.75;;
75054;SDS011;63636;44.746;10.488;2023-06-22T10:38:42;9.45;;;3.92;;
75054;SDS011;63636;44.746;10.488;2023-06-22T10:41:07;7.97;;;3.92;;
75054;SDS011;63636;44.746;10.488;2023-06-22T10:43:33;8.93;;;3.83;;
75054;SDS011;63636;44.746;10.488;2023-06-22T10:45:58;7.13;;;3.92;;
75054;SDS011;63636;44.746;10.488;2023-06-22T10:48:24;6.00;;;3.67;;
75054;SDS011;63636;44.746;10.488;2023-06-22T10:50:49;7.10;;;3.67;;
75054;SDS011;63636;44.746;10.488;2023-06-22T10:53:15;6.78;;;3.33;;
75054;SDS011;63636;44.746;10.488;2023-06-22T10:55:40;7.95;;;3.45;;
75054;SDS011;63636;44.746;10.488;2023-06-22T10:58:06;7.80;;;3.60;;
75054;SDS011;63636;44.746;10.488;2023-06-22T11:00:32;10.20;;;4.03;;
75054;SDS011;63636;44.746;10.488;2023-06-22T11:02:57;9.50;;;4.07;;
75054;SDS011;63636;44.746;10.488;2023-06-22T11:05:23;6.05;;;3.70;;
75054;SDS011;63636;44.746;10.488;2023-06-22T11:07:49;6.72;;;4.03;;
75054;SDS011;63636;44.746;10.488;2023-06-22T11:10:15;8.82;;;5.03;;
75054;SDS011;63636;44.746;10.488;2023-06-22T11:12:41;7.15;;;3.95;;
75054;SDS011;63636;44.746;10.488;2023-06-22T11:15:08;8.45;;;4.05;;
75054;SDS011;63636;44.746;10.488;2023-06-22T11:17:33;7.28;;;3.80;;
75054;SDS011;63636;44.746;10.488;2023-06-22T11:19:59;8.63;;;4.18;;
75054;SDS011;63636;44.746;10.488;2023-06-22T11:22:25;7.97;;;3.80;;
75054;SDS011;63636;44.746;10.488;2023-06-22T11:24:51;5.97;;;3.80;;
75054;SDS011;63636;44.746;10.488;2023-06-22T11:27:16;6.65;;;3.80;;
75054;SDS011;63636;44.746;10.488;2023-06-22T11:29:42;7.22;;;3.75;;
75054;SDS011;63636;44.746;10.488;2023-06-22T11:32:07;5.78;;;3.67;;
75054;SDS011;63636;44.746;10.488;2023-06-22T11:34:33;7.38;;;3.90;;
75054;SDS011;63636;44.746;10.488;2023-06-22T11:36:59;5.95;;;3.83;;
75054;SDS011;63636;44.746;10.488;2023-06-22T11:39:24;8.15;;;4.00;;
75054;SDS011;63636;44.746;10.488;2023-06-22T11:41:50;8.02;;;4.13;;
75054;SDS011;63636;44.746;10.488;2023-06-22T11:44:15;7.07;;;3.90;;
75054;SDS011;63636;44.746;10.488;2023-06-22T11:46:41;8.02;;;3.90;;
75054;SDS011;63636;44.746;10.488;2023-06-22T11:49:07;10.27;;;4.10;;
75054;SDS011;63636;44.746;10.488;2023-06-22T11:51:32;6.90;;;4.00;;
75054;SDS011;63636;44.746;10.488;2023-06-22T11:53:58;6.95;;;3.80;;
75054;SDS011;63636;44.746;10.488;2023-06-22T11:56:24;10.68;;;4.18;;
75054;SDS011;63636;44.746;10.488;2023-06-22T11:58:49;8.98;;;3.95;;
75054;SDS011;63636;44.746;10.488;2023-06-22T12:01:15;7.05;;;3.72;;
75054;SDS011;63636;44.746;10.488;2023-06-22T12:03:41;9.77;;;4.38;;
75054;SDS011;63636;44.746;10.488;2023-06-22T12:06:08;10.10;;;4.40;;
75054;SDS011;63636;44.746;10.488;2023-06-22T12:08:34;7.40;;;4.10;;
75054;SDS011;63636;44.746;10.488;2023-06-22T12:10:59;7.05;;;4.13;;
75054;SDS011;63636;44.746;10.488;2023-06-22T12:13:25;6.75;;;4.10;;
75054;SDS011;63636;44.746;10.488;2023-06-22T12:15:50;6.70;;;4.10;;
75054;SDS011;63636;44.746;10.488;2023-06-22T12:18:18;8.07;;;4.40;;
75054;SDS011;63636;44.746;10.488;2023-06-22T12:20:45;7.50;;;4.38;;
75054;SDS011;63636;44.746;10.488;2023-06-22T12:23:14;7.68;;;4.70;;
75054;SDS011;63636;44.746;10.488;2023-06-22T12:25:40;9.07;;;4.28;;
75054;SDS011;63636;44.746;10.488;2023-06-22T12:28:05;9.40;;;4.35;;
75054;SDS011;63636;44.746;10.488;2023-06-22T12:30:32;7.85;;;4.78;;
75054;SDS011;63636;44.746;10.488;2023-06-22T12:32:57;6.03;;;3.78;;
75054;SDS011;63636;44.746;10.488;2023-06-22T12:35:23;8.65;;;4.97;;
75054;SDS011;63636;44.746;10.488;2023-06-22T12:37:49;10.60;;;4.53;;
75054;SDS011;63636;44.746;10.488;2023-06-22T12:40:14;7.03;;;4.00;;
75054;SDS011;63636;44.746;10.488;2023-06-22T12:42:40;7.40;;;4.05;;
75054;SDS011;63636;44.746;10.488;2023-06-22T12:45:07;8.75;;;4.38;;
75054;SDS011;63636;44.746;10.488;2023-06-22T12:47:32;8.65;;;4.30;;
75054;SDS011;63636;44.746;10.488;2023-06-22T12:49:58;8.80;;;4.57;;
75054;SDS011;63636;44.746;10.488;2023-06-22T12:52:24;8.15;;;4.72;;
75054;SDS011;63636;44.746;10.488;2023-06-22T12:54:49;8.60;;;5.00;;
75054;SDS011;63636;44.746;10.488;2023-06-22T12:57:15;7.28;;;4.38;;
75054;SDS011;63636;44.746;10.488;2023-06-22T12:59:40;9.18;;;4.50;;
75054;SDS011;63636;44.746;10.488;2023-06-22T13:02:06;7.88;;;4.30;;
75054;SDS011;63636;44.746;10.488;2023-06-22T13:04:31;7.65;;;4.22;;
75054;SDS011;63636;44.746;10.488;2023-06-22T13:06:57;6.55;;;4.20;;
75054;SDS011;63636;44.746;10.488;2023-06-22T13:09:22;7.05;;;4.18;;
75054;SDS011;63636;44.746;10.488;2023-06-22T13:11:48;8.27;;;4.88;;
75054;SDS011;63636;44.746;10.488;2023-06-22T13:14:14;8.95;;;4.63;;
75054;SDS011;63636;44.746;10.488;2023-06-22T13:16:41;8.52;;;5.00;;
75054;SDS011;63636;44.746;10.488;2023-06-22T13:19:07;6.80;;;4.95;;
75054;SDS011;63636;44.746;10.488;2023-06-22T13:21:32;9.82;;;4.85;;
75054;SDS011;63636;44.746;10.488;2023-06-22T13:23:59;10.02;;;5.05;;
75054;SDS011;63636;44.746;10.488;2023-06-22T13:26:25;8.57;;;4.70;;
75054;SDS011;63636;44.746;10.488;2023-06-22T13:28:50;9.07;;;4.53;;
75054;SDS011;63636;44.746;10.488;2023-06-22T13:31:16;8.48;;;4.60;;
75054;SDS011;63636;44.746;10.488;2023-06-22T13:33:41;9.95;;;4.68;;
75054;SDS011;63636;44.746;10.488;2023-06-22T13:36:07;10.00;;;4.60;;
75054;SDS011;63636;44.746;10.488;2023-06-22T13:38:34;9.10;;;4.60;;
75054;SDS011;63636;44.746;10.488;2023-06-22T13:41:03;8.88;;;4.55;;
75054;SDS011;63636;44.746;10.488;2023-06-22T13:43:29;8.02;;;4.47;;
75054;SDS011;63636;44.746;10.488;2023-06-22T13:45:54;9.43;;;4.55;;
75054;SDS011;63636;44.746;10.488;2023-06-22T13:48:20;11.05;;;4.70;;
75054;SDS011;63636;44.746;10.488;2023-06-22T13:50:46;8.50;;;4.80;;
75054;SDS011;63636;44.746;10.488;2023-06-22T13:53:11;8.63;;;4.55;;
75054;SDS011;63636;44.746;10.488;2023-06-22T13:55:37;7.88;;;4.47;;
75054;SDS011;63636;44.746;10.488;2023-06-22T13:58:02;8.95;;;4.90;;
75054;SDS011;63636;44.746;10.488;2023-06-22T14:00:28;11.13;;;4.57;;
75054;SDS011;63636;44.746;10.488;2023-06-22T14:02:53;7.28;;;4.45;;
75054;SDS011;63636;44.746;10.488;2023-06-22T14:05:19;7.97;;;4.50;;
75054;SDS011;63636;44.746;10.488;2023-06-22T14:07:45;6.93;;;4.13;;
75054;SDS011;63636;44.746;10.488;2023-06-22T14:10:10;12.05;;;4.53;;
75054;SDS011;63636;44.746;10.488;2023-06-22T14:12:36;7.78;;;4.28;;
75054;SDS011;63636;44.746;10.488;2023-06-22T14:15:02;10.90;;;4.50;;
75054;SDS011;63636;44.746;10.488;2023-06-22T14:17:27;9.52;;;4.50;;
75054;SDS011;63636;44.746;10.488;2023-06-22T14:19:53;7.70;;;4.45;;
75054;SDS011;63636;44.746;10.488;2023-06-22T14:22:22;7.90;;;4.15;;
75054;SDS011;63636;44.746;10.488;2023-06-22T14:24:48;7.63;;;4.68;;
75054;SDS011;63636;44.746;10.488;2023-06-22T14:27:13;9.68;;;4.65;;